createdAt,value
2019-04-10T00:00:37.304Z,15.35
2019-04-10T00:03:06.774Z,15.37
2019-04-10T00:05:36.233Z,15.36
2019-04-10T00:08:06.232Z,15.38
2019-04-10T00:10:36.214Z,15.38
2019-04-10T00:13:06.653Z,15.40
2019-04-10T00:15:36.296Z,15.37
2019-04-10T00:18:07.349Z,15.37
2019-04-10T00:20:36.933Z,15.35
2019-04-10T00:23:06.757Z,15.33
2019-04-10T00:25:37.111Z,15.29
2019-04-10T00:28:08.003Z,15.21
2019-04-10T00:30:37.823Z,15.22
2019-04-10T00:33:08.227Z,15.23
2019-04-10T00:35:37.517Z,15.24
2019-04-10T00:38:07.160Z,15.26
2019-04-10T00:40:36.635Z,15.28
2019-04-10T00:43:06.634Z,15.27
2019-04-10T00:45:35.922Z,15.24
2019-04-10T00:48:05.835Z,15.18
2019-04-10T00:50:36.922Z,15.12
2019-04-10T00:53:06.491Z,15.10
2019-04-10T00:55:35.745Z,15.03
2019-04-10T00:58:05.818Z,15.00
2019-04-10T01:00:36.761Z,14.96
2019-04-10T01:03:07.431Z,14.92
2019-04-10T01:05:37.665Z,14.91
2019-04-10T01:08:07.002Z,14.89
2019-04-10T01:10:36.707Z,14.85
2019-04-10T01:13:06.188Z,14.81
2019-04-10T01:15:36.460Z,14.81
2019-04-10T01:18:06.758Z,14.73
2019-04-10T01:20:36.182Z,14.70
2019-04-10T01:23:05.795Z,14.63
2019-04-10T01:25:35.281Z,14.58
2019-04-10T01:28:04.721Z,14.50
2019-04-10T01:30:34.807Z,14.45
2019-04-10T01:33:04.115Z,14.34
2019-04-10T01:35:34.123Z,14.26
2019-04-10T01:38:05.897Z,14.23
2019-04-10T01:40:35.209Z,14.23
2019-04-10T01:43:12.241Z,14.24
2019-04-10T01:45:35.755Z,14.20
2019-04-10T01:48:05.946Z,14.17
2019-04-10T01:50:35.362Z,14.13
2019-04-10T01:53:05.606Z,14.15
2019-04-10T01:55:35.923Z,14.16
2019-04-10T01:58:06.750Z,14.16
2019-04-10T02:00:37.621Z,14.17
2019-04-10T02:03:06.869Z,14.16
2019-04-10T02:05:36.681Z,14.15
2019-04-10T02:08:09.112Z,14.14
2019-04-10T02:10:36.980Z,14.14
2019-04-10T02:13:07.333Z,14.14
2019-04-10T02:15:36.723Z,14.15
2019-04-10T02:18:05.953Z,14.18
2019-04-10T02:20:35.114Z,14.17
2019-04-10T02:23:04.304Z,14.11
2019-04-10T02:25:36.872Z,14.10
2019-04-10T02:28:06.948Z,14.12
2019-04-10T02:30:37.324Z,14.11
2019-04-10T02:33:08.436Z,14.09
2019-04-10T02:35:38.062Z,14.05
2019-04-10T02:38:29.183Z,14.03
2019-04-10T02:40:39.225Z,14.04
2019-04-10T02:43:10.289Z,14.02
2019-04-10T02:45:40.375Z,14.04
2019-04-10T02:48:12.149Z,14.05
2019-04-10T02:50:42.836Z,14.06
2019-04-10T02:53:13.079Z,14.07
2019-04-10T02:55:43.178Z,14.05
2019-04-10T02:58:14.119Z,14.04
2019-04-10T03:00:44.150Z,14.03
2019-04-10T03:03:13.937Z,14.05
2019-04-10T03:05:44.632Z,14.03
2019-04-10T03:08:15.861Z,14.04
2019-04-10T03:10:51.758Z,14.06
2019-04-10T03:13:17.770Z,14.06
2019-04-10T03:15:47.628Z,14.02
2019-04-10T03:18:17.151Z,14.03
2019-04-10T03:20:46.800Z,14.02
2019-04-10T03:23:17.565Z,14.01
2019-04-10T03:25:46.814Z,13.98
2019-04-10T03:28:16.668Z,13.98
2019-04-10T03:30:46.690Z,13.95
2019-04-10T03:33:31.157Z,13.97
2019-04-10T03:35:58.980Z,13.96
2019-04-10T03:38:28.321Z,13.93
2019-04-10T03:40:57.707Z,13.92
2019-04-10T03:43:27.872Z,13.92
2019-04-10T03:45:57.229Z,13.91
2019-04-10T03:48:27.171Z,13.93
2019-04-10T03:50:57.581Z,13.93
2019-04-10T03:53:27.384Z,13.91
2019-04-10T03:55:57.092Z,13.89
2019-04-10T03:58:27.320Z,13.89
2019-04-10T04:00:56.888Z,13.88
2019-04-10T04:03:26.792Z,13.85
2019-04-10T04:05:57.171Z,13.85
2019-04-10T04:08:27.719Z,13.84
2019-04-10T04:10:57.281Z,13.81
2019-04-10T04:13:26.534Z,13.82
2019-04-10T04:15:55.733Z,13.80
2019-04-10T04:18:24.976Z,13.77
2019-04-10T04:20:55.055Z,13.77
2019-04-10T04:23:24.311Z,13.77
2019-04-10T04:25:54.666Z,13.76
2019-04-10T04:28:23.877Z,13.72
2019-04-10T04:30:53.816Z,13.71
2019-04-10T04:33:23.324Z,13.71
2019-04-10T04:35:53.219Z,13.66
2019-04-10T04:38:23.538Z,13.61
2019-04-10T04:40:54.713Z,13.61
2019-04-10T04:43:25.029Z,13.58
2019-04-10T04:45:55.323Z,13.60
2019-04-10T04:48:24.662Z,13.60
2019-04-10T04:50:54.434Z,13.58
2019-04-10T04:53:23.711Z,13.57
2019-04-10T04:55:53.406Z,13.50
2019-04-10T04:58:22.770Z,13.52
2019-04-10T05:00:52.285Z,13.51
2019-04-10T05:03:22.737Z,13.56
2019-04-10T05:05:52.129Z,13.50
2019-04-10T05:08:21.767Z,13.47
2019-04-10T05:10:51.149Z,13.44
2019-04-10T05:13:20.260Z,13.40
2019-04-10T05:15:49.462Z,13.42
2019-04-10T05:18:19.049Z,13.42
2019-04-10T05:20:50.432Z,13.49
2019-04-10T05:23:19.163Z,13.52
2019-04-10T05:25:48.362Z,13.49
2019-04-10T05:28:17.526Z,13.46
2019-04-10T05:30:46.731Z,13.49
2019-04-10T05:33:16.213Z,13.56
2019-04-10T05:35:45.679Z,13.58
2019-04-10T05:38:14.889Z,13.56
2019-04-10T05:40:44.313Z,13.65
2019-04-10T05:43:13.713Z,13.66
2019-04-10T05:45:42.830Z,13.71
2019-04-10T05:48:12.057Z,13.69
2019-04-10T05:50:52.607Z,13.70
2019-04-10T05:53:12.124Z,13.78
2019-04-10T05:55:45.205Z,13.75
2019-04-10T05:58:15.463Z,13.79
2019-04-10T06:00:45.108Z,13.81
2019-04-10T06:03:14.551Z,13.88
2019-04-10T06:05:44.491Z,13.90
2019-04-10T06:08:14.034Z,13.96
2019-04-10T06:10:43.653Z,14.03
2019-04-10T06:13:13.049Z,14.13
2019-04-10T06:15:43.393Z,14.14
2019-04-10T06:18:13.880Z,14.21
2019-04-10T06:20:43.761Z,14.41
2019-04-10T06:23:12.840Z,14.46
2019-04-10T06:25:43.433Z,14.57
2019-04-10T06:28:12.991Z,14.77
2019-04-10T06:30:43.816Z,14.77
2019-04-10T06:33:12.989Z,15.00
2019-04-10T06:35:42.256Z,15.03
2019-04-10T06:38:11.398Z,15.21
2019-04-10T06:40:40.540Z,15.41
2019-04-10T06:43:09.917Z,15.48
2019-04-10T06:45:39.927Z,15.62
2019-04-10T06:48:09.306Z,15.76
2019-04-10T06:50:39.198Z,15.75
2019-04-10T06:53:08.571Z,15.84
2019-04-10T06:55:38.517Z,16.06
2019-04-10T06:58:07.965Z,16.10
2019-04-10T07:00:37.437Z,16.36
2019-04-10T07:03:06.604Z,16.53
2019-04-10T07:05:40.889Z,16.46
2019-04-10T07:08:14.448Z,16.51
2019-04-10T07:10:49.153Z,16.69
2019-04-10T07:13:10.828Z,16.69
2019-04-10T07:15:42.472Z,17.24
2019-04-10T07:18:15.220Z,17.50
2019-04-10T07:20:42.153Z,17.99
2019-04-10T07:23:14.559Z,18.36
2019-04-10T07:25:45.522Z,18.56
2019-04-10T07:28:14.365Z,18.68
2019-04-10T07:30:43.620Z,18.72
2019-04-10T07:33:16.537Z,18.85
2019-04-10T07:35:44.339Z,18.84
2019-04-10T07:38:13.964Z,19.00
2019-04-10T07:40:43.275Z,18.70
2019-04-10T07:43:13.301Z,18.69
2019-04-10T07:45:42.649Z,19.08
2019-04-10T07:48:12.879Z,19.42
2019-04-10T07:50:45.310Z,19.50
2019-04-10T07:53:13.097Z,19.24
2019-04-10T07:55:55.174Z,19.45
2019-04-10T07:58:13.293Z,19.72
2019-04-10T08:00:42.921Z,19.82
2019-04-10T08:03:12.517Z,20.22
2019-04-10T08:05:41.882Z,20.20
2019-04-10T08:08:11.199Z,20.02
2019-04-10T08:10:42.353Z,19.74
2019-04-10T08:13:12.149Z,19.48
2019-04-10T08:15:41.458Z,19.66
2019-04-10T08:18:10.618Z,19.67
2019-04-10T08:20:40.305Z,19.68
2019-04-10T08:23:10.185Z,19.72
2019-04-10T08:25:40.827Z,19.49
2019-04-10T08:28:11.242Z,19.33
2019-04-10T08:30:41.880Z,19.40
2019-04-10T08:33:11.964Z,19.41
2019-04-10T08:35:41.914Z,19.52
2019-04-10T08:38:11.344Z,19.57
2019-04-10T08:40:40.601Z,19.48
2019-04-10T08:43:09.684Z,19.74
2019-04-10T08:45:46.719Z,20.31
2019-04-10T08:48:10.043Z,19.89
2019-04-10T08:50:39.349Z,20.48
2019-04-10T08:53:09.546Z,21.22
2019-04-10T08:55:40.002Z,21.61
2019-04-10T08:58:10.347Z,22.08
2019-04-10T09:00:40.694Z,21.94
2019-04-10T09:03:10.804Z,22.12
2019-04-10T09:05:40.229Z,22.61
2019-04-10T09:08:09.423Z,23.16
2019-04-10T09:10:38.736Z,23.81
2019-04-10T09:13:08.374Z,23.78
2019-04-10T09:15:38.222Z,24.06
2019-04-10T09:18:08.554Z,23.52
2019-04-10T09:20:38.587Z,22.22
2019-04-10T09:23:20.207Z,21.92
2019-04-10T09:25:39.447Z,22.85
2019-04-10T09:28:08.893Z,23.68
2019-04-10T09:30:38.138Z,24.10
2019-04-10T09:33:16.955Z,24.71
2019-04-10T09:35:38.498Z,24.81
2019-04-10T09:38:07.741Z,25.37
2019-04-10T09:40:38.335Z,25.93
2019-04-10T09:43:07.670Z,25.81
2019-04-10T09:45:37.159Z,25.96
2019-04-10T09:48:06.527Z,26.13
2019-04-10T09:50:35.837Z,26.38
2019-04-10T09:53:05.256Z,26.50
2019-04-10T09:55:34.474Z,26.03
2019-04-10T09:58:03.674Z,25.49
2019-04-10T10:00:33.944Z,25.17
2019-04-10T10:03:03.547Z,24.57
2019-04-10T10:05:32.761Z,24.62
2019-04-10T10:08:02.213Z,24.89
2019-04-10T10:10:34.512Z,25.00
2019-04-10T10:13:03.329Z,24.93
2019-04-10T10:15:33.450Z,24.42
2019-04-10T10:18:03.381Z,23.92
2019-04-10T10:20:32.709Z,24.04
2019-04-10T10:23:01.986Z,24.58
2019-04-10T10:25:31.317Z,24.80
2019-04-10T10:28:00.442Z,24.27
2019-04-10T10:30:30.091Z,23.84
2019-04-10T10:32:59.421Z,23.66
2019-04-10T10:35:29.369Z,24.05
2019-04-10T10:37:59.010Z,24.40
2019-04-10T10:40:28.294Z,24.54
2019-04-10T10:42:58.162Z,25.04
2019-04-10T10:45:27.564Z,25.27
2019-04-10T10:47:56.904Z,24.89
2019-04-10T10:50:26.123Z,25.04
2019-04-10T10:52:55.617Z,25.59
2019-04-10T10:55:25.418Z,26.24
2019-04-10T10:57:55.453Z,26.79
2019-04-10T11:00:25.179Z,27.29
2019-04-10T11:02:54.651Z,26.86
2019-04-10T11:05:23.701Z,27.64
2019-04-10T11:07:53.099Z,27.68
2019-04-10T11:10:27.061Z,27.58
2019-04-10T11:12:55.177Z,28.07
2019-04-10T11:15:26.016Z,28.07
2019-04-10T11:17:55.398Z,27.90
2019-04-10T11:20:25.574Z,28.37
2019-04-10T11:22:55.827Z,28.86
2019-04-10T11:25:26.127Z,29.03
2019-04-10T11:27:56.466Z,29.34
2019-04-10T11:30:26.933Z,29.72
2019-04-10T11:32:56.417Z,29.96
2019-04-10T11:35:26.540Z,30.31
2019-04-10T11:37:59.194Z,30.42
2019-04-10T11:40:29.571Z,30.77
2019-04-10T11:43:01.765Z,30.22
2019-04-10T11:45:38.039Z,29.15
2019-04-10T11:48:02.299Z,28.00
2019-04-10T11:50:32.678Z,27.44
2019-04-10T11:53:02.752Z,27.08
2019-04-10T11:55:42.451Z,26.65
2019-04-10T11:58:03.037Z,26.33
2019-04-10T12:00:50.592Z,26.02
2019-04-10T12:03:17.508Z,26.27
2019-04-10T12:05:48.042Z,25.63
2019-04-10T12:08:36.255Z,25.59
2019-04-10T12:13:19.746Z,25.97
2019-04-10T12:15:50.380Z,26.52
2019-04-10T12:18:19.761Z,26.71
2019-04-10T12:20:49.329Z,27.17
2019-04-10T12:23:18.822Z,27.16
2019-04-10T12:25:49.271Z,27.66
2019-04-10T12:28:18.664Z,28.18
2019-04-10T12:30:47.986Z,28.85
2019-04-10T12:33:17.223Z,28.56
2019-04-10T12:35:46.421Z,28.89
2019-04-10T12:38:15.624Z,29.57
2019-04-10T12:40:44.843Z,29.39
2019-04-10T12:43:14.059Z,28.17
2019-04-10T12:45:44.181Z,27.32
2019-04-10T12:48:14.535Z,27.14
2019-04-10T12:50:44.000Z,27.76
2019-04-10T12:53:13.570Z,28.57
2019-04-10T12:55:43.737Z,29.50
2019-04-10T12:58:17.259Z,28.98
2019-04-10T13:00:44.586Z,27.85
2019-04-10T13:03:14.643Z,29.16
2019-04-10T13:05:45.244Z,29.08
2019-04-10T13:08:21.049Z,29.02
2019-04-10T13:10:45.858Z,27.80
2019-04-10T13:13:15.086Z,28.41
2019-04-10T13:15:45.568Z,28.88
2019-04-10T13:18:14.940Z,29.25
2019-04-10T13:20:44.247Z,28.12
2019-04-10T13:23:14.879Z,28.38
2019-04-10T13:25:55.379Z,27.76
2019-04-10T13:28:15.366Z,27.03
2019-04-10T13:30:52.413Z,26.85
2019-04-10T13:33:16.419Z,26.59
2019-04-10T13:35:46.296Z,27.55
2019-04-10T13:38:25.785Z,28.64
2019-04-10T13:40:48.018Z,29.44
2019-04-10T13:43:18.025Z,29.82
2019-04-10T13:45:48.617Z,29.67
2019-04-10T13:48:17.888Z,28.86
2019-04-10T13:50:47.176Z,28.29
2019-04-10T13:53:17.528Z,27.67
2019-04-10T13:55:46.845Z,28.39
2019-04-10T13:58:17.197Z,28.89
2019-04-10T14:00:47.139Z,29.21
2019-04-10T14:03:16.725Z,29.34
2019-04-10T14:05:47.625Z,27.99
2019-04-10T14:08:17.014Z,27.58
2019-04-10T14:10:46.816Z,27.88
2019-04-10T14:13:16.335Z,27.23
2019-04-10T14:15:46.382Z,27.49
2019-04-10T14:18:16.650Z,27.73
2019-04-10T14:20:46.028Z,27.87
2019-04-10T14:23:18.005Z,27.42
2019-04-10T14:25:52.060Z,27.72
2019-04-10T14:28:22.959Z,27.92
2019-04-10T14:30:53.744Z,26.94
2019-04-10T14:33:23.338Z,26.34
2019-04-10T14:35:53.671Z,26.53
2019-04-10T14:38:23.273Z,26.90
2019-04-10T14:40:53.534Z,27.80
2019-04-10T14:43:23.090Z,28.36
2019-04-10T14:45:52.321Z,28.69
2019-04-10T14:48:22.358Z,28.88
2019-04-10T14:50:51.661Z,28.94
2019-04-10T14:53:20.920Z,28.56
2019-04-10T14:55:50.131Z,28.57
2019-04-10T14:58:23.956Z,27.90
2019-04-10T15:00:50.961Z,27.85
2019-04-10T15:03:22.498Z,27.17
2019-04-10T15:05:54.470Z,27.39
2019-04-10T15:08:23.797Z,27.35
2019-04-10T15:10:53.279Z,27.71
2019-04-10T15:13:24.238Z,27.95
2019-04-10T15:15:53.623Z,27.84
2019-04-10T15:18:22.905Z,27.02
2019-04-10T15:20:52.321Z,26.81
2019-04-10T15:23:21.516Z,26.65
2019-04-10T15:25:51.237Z,26.27
2019-04-10T15:28:20.891Z,26.17
2019-04-10T15:30:50.804Z,26.30
2019-04-10T15:33:20.579Z,26.41
2019-04-10T15:35:49.872Z,26.31
2019-04-10T15:38:19.999Z,26.48
2019-04-10T15:40:50.321Z,26.52
2019-04-10T15:43:20.893Z,26.28
2019-04-10T15:45:50.491Z,26.12
2019-04-10T15:48:20.919Z,26.23
2019-04-10T15:50:50.246Z,26.45
2019-04-10T15:53:20.236Z,25.82
2019-04-10T15:55:49.683Z,25.53
2019-04-10T15:58:21.548Z,26.01
2019-04-10T16:00:51.743Z,26.10
2019-04-10T16:03:21.847Z,26.15
2019-04-10T16:05:51.412Z,26.01
2019-04-10T16:08:20.835Z,25.67
2019-04-10T16:11:07.910Z,25.44
2019-04-10T16:13:38.913Z,25.02
2019-04-10T16:16:19.125Z,24.74
2019-04-10T16:18:50.200Z,24.52
2019-04-10T16:21:20.334Z,24.47
2019-04-10T16:24:00.555Z,24.43
2019-04-10T16:26:32.157Z,24.27
2019-04-10T16:29:02.020Z,23.92
2019-04-10T16:31:31.886Z,23.67
2019-04-10T16:34:01.374Z,23.46
2019-04-10T16:36:30.595Z,23.49
2019-04-10T16:39:00.794Z,23.71
2019-04-10T16:41:31.165Z,23.62
2019-04-10T16:44:00.700Z,23.45
2019-04-10T16:46:29.970Z,23.10
2019-04-10T16:49:00.217Z,22.87
2019-04-10T16:51:29.553Z,22.69
2019-04-10T16:54:00.169Z,22.60
2019-04-10T16:56:29.804Z,22.46
2019-04-10T16:59:00.400Z,22.32
2019-04-10T17:01:30.961Z,22.15
2019-04-10T17:04:00.798Z,22.04
2019-04-10T17:06:30.437Z,21.97
2019-04-10T17:09:00.618Z,21.83
2019-04-10T17:11:30.790Z,21.70
2019-04-10T17:14:01.054Z,21.64
2019-04-10T17:16:31.277Z,21.56
2019-04-10T17:19:00.881Z,21.45
2019-04-10T17:21:31.127Z,21.36
2019-04-10T17:24:00.864Z,21.23
2019-04-10T17:26:31.011Z,21.13
2019-04-10T17:29:00.893Z,21.01
2019-04-10T17:31:30.787Z,20.91
2019-04-10T17:34:00.639Z,20.83
2019-04-10T17:36:30.046Z,20.77
2019-04-10T17:39:00.728Z,20.71
2019-04-10T17:41:31.307Z,20.67
2019-04-10T17:44:02.440Z,20.61
2019-04-10T17:46:31.538Z,20.55
2019-04-10T17:49:01.287Z,20.50
2019-04-10T17:51:30.586Z,20.52
2019-04-10T17:54:00.036Z,20.45
2019-04-10T17:56:30.475Z,20.36
2019-04-10T17:59:00.484Z,20.30
2019-04-10T18:01:30.025Z,20.15
2019-04-10T18:04:02.996Z,20.08
2019-04-10T18:06:31.131Z,20.04
2019-04-10T18:09:01.193Z,20.01
2019-04-10T18:11:30.617Z,19.96
2019-04-10T18:14:00.833Z,19.87
2019-04-10T18:16:31.303Z,19.78
2019-04-10T18:19:00.659Z,19.73
2019-04-10T18:21:30.871Z,19.65
2019-04-10T18:24:00.433Z,19.58
2019-04-10T18:26:31.869Z,19.52
2019-04-10T18:29:02.328Z,19.43
2019-04-10T18:31:32.615Z,19.31
2019-04-10T18:34:03.213Z,19.24
2019-04-10T18:36:33.199Z,19.22
2019-04-10T18:39:02.840Z,19.16
2019-04-10T18:41:32.220Z,19.12
2019-04-10T18:44:01.508Z,19.06
2019-04-10T18:46:31.286Z,19.00
2019-04-10T18:49:01.059Z,19.00
2019-04-10T18:51:30.302Z,18.99
2019-04-10T18:53:59.761Z,18.95
2019-04-10T18:56:29.281Z,18.93
2019-04-10T18:59:07.903Z,18.88
2019-04-10T19:01:43.154Z,18.86
2019-04-10T19:04:14.260Z,18.79
2019-04-10T19:06:49.706Z,18.70
2019-04-10T19:09:24.610Z,18.63
2019-04-10T19:11:50.609Z,18.59
2019-04-10T19:14:20.716Z,18.53
2019-04-10T19:16:50.266Z,18.47
2019-04-10T19:19:20.474Z,18.46
2019-04-10T19:21:50.091Z,18.45
2019-04-10T19:24:21.927Z,18.40
2019-04-10T19:26:51.888Z,18.43
2019-04-10T19:29:21.426Z,18.47
2019-04-10T19:31:52.731Z,18.51
2019-04-10T19:34:23.354Z,18.53
2019-04-10T19:36:54.349Z,18.52
2019-04-10T19:39:24.467Z,18.50
2019-04-10T19:41:55.322Z,18.50
2019-04-10T19:44:25.554Z,18.52
2019-04-10T19:46:56.333Z,18.47
2019-04-10T19:49:26.090Z,18.44
2019-04-10T19:51:56.038Z,18.39
2019-04-10T19:54:26.147Z,18.38
2019-04-10T19:56:55.728Z,18.34
2019-04-10T19:59:25.056Z,18.33
2019-04-10T20:01:54.810Z,18.24
2019-04-10T20:04:24.346Z,18.21
2019-04-10T20:06:54.439Z,18.18
2019-04-10T20:09:24.426Z,18.11
2019-04-10T20:11:56.924Z,18.03
2019-04-10T20:14:24.860Z,17.99
2019-04-10T20:16:53.993Z,18.01
2019-04-10T20:19:24.617Z,18.03
2019-04-10T20:21:54.521Z,18.03
2019-04-10T20:24:25.035Z,18.01
2019-04-10T20:26:54.474Z,17.92
2019-04-10T20:29:23.938Z,17.83
2019-04-10T20:31:55.359Z,17.78
2019-04-10T20:34:25.387Z,17.74
2019-04-10T20:36:55.395Z,17.68
2019-04-10T20:39:25.364Z,17.62
2019-04-10T20:41:56.683Z,17.55
2019-04-10T20:44:25.596Z,17.47
2019-04-10T20:46:55.025Z,17.50
2019-04-10T20:49:24.346Z,17.52
2019-04-10T20:51:53.728Z,17.49
2019-04-10T20:54:23.150Z,17.45
2019-04-10T20:56:52.760Z,17.39
2019-04-10T20:59:22.004Z,17.38
2019-04-10T21:01:51.459Z,17.29
2019-04-10T21:04:23.537Z,17.25
2019-04-10T21:06:52.977Z,17.25
2019-04-10T21:09:23.554Z,17.24
2019-04-10T21:12:02.665Z,17.24
2019-04-10T21:14:24.280Z,17.25
2019-04-10T21:16:53.520Z,17.23
2019-04-10T21:19:22.960Z,17.22
2019-04-10T21:21:52.244Z,17.21
2019-04-10T21:24:21.677Z,17.24
2019-04-10T21:26:51.038Z,17.24
2019-04-10T21:29:38.411Z,17.23
2019-04-10T21:32:09.511Z,17.24
2019-04-10T21:34:40.508Z,17.26
2019-04-10T21:37:10.172Z,17.26
2019-04-10T21:39:39.582Z,17.25
2019-04-10T21:42:18.184Z,17.23
2019-04-10T21:44:40.569Z,17.19
2019-04-10T21:47:11.071Z,17.18
2019-04-10T21:49:42.129Z,17.18
2019-04-10T21:52:11.434Z,17.16
2019-04-10T21:54:49.770Z,17.12
2019-04-10T21:57:11.729Z,17.08
2019-04-10T21:59:40.925Z,17.06
2019-04-10T22:02:11.124Z,17.05
2019-04-10T22:04:41.401Z,17.04
2019-04-10T22:07:12.271Z,17.06
2019-04-10T22:09:43.272Z,17.05
2019-04-10T22:12:27.658Z,17.03
2019-04-10T22:14:51.244Z,16.95
2019-04-10T22:17:20.563Z,16.92
2019-04-10T22:19:50.747Z,16.97
2019-04-10T22:22:20.368Z,16.95
2019-04-10T22:24:50.567Z,16.93
2019-04-10T22:27:20.038Z,16.91
2019-04-10T22:29:49.358Z,16.86
2019-04-10T22:32:19.253Z,16.83
2019-04-10T22:34:48.549Z,16.81
2019-04-10T22:37:17.816Z,16.80
2019-04-10T22:39:48.193Z,16.78
2019-04-10T22:42:17.774Z,16.74
2019-04-10T22:44:48.230Z,16.76
2019-04-10T22:47:17.582Z,16.72
2019-04-10T22:49:47.219Z,16.72
2019-04-10T22:52:17.670Z,16.70
2019-04-10T22:54:46.967Z,16.71
2019-04-10T22:57:16.252Z,16.70
2019-04-10T22:59:46.689Z,16.68
2019-04-10T23:02:16.558Z,16.69
2019-04-10T23:04:47.011Z,16.70
2019-04-10T23:07:17.571Z,16.70
2019-04-10T23:09:47.170Z,16.69
2019-04-10T23:12:16.281Z,16.66
2019-04-10T23:14:45.436Z,16.64
2019-04-10T23:17:14.829Z,16.63
2019-04-10T23:19:44.573Z,16.63
2019-04-10T23:22:13.851Z,16.58
2019-04-10T23:24:43.490Z,16.51
2019-04-10T23:27:13.387Z,16.41
2019-04-10T23:29:42.728Z,16.29
2019-04-10T23:32:11.868Z,16.23
2019-04-10T23:34:41.054Z,16.13
2019-04-10T23:37:10.903Z,15.95
2019-04-10T23:39:40.603Z,15.84
2019-04-10T23:42:10.830Z,15.82
2019-04-10T23:44:40.793Z,15.78
2019-04-10T23:47:10.238Z,15.69
2019-04-10T23:49:39.550Z,15.63
2019-04-10T23:52:09.688Z,15.59
2019-04-10T23:54:39.483Z,15.54
2019-04-10T23:57:10.013Z,15.46
2019-04-10T23:59:39.780Z,15.39
